sensor_id;sensor_type;location;lat;lon;timestamp;P1;durP1;ratioP1;P2;durP2;ratioP2
3843;SDS011;1937;51.444;6.484;2023-07-24T00:01:26;4.03;;;2.90;;
3843;SDS011;1937;51.444;6.484;2023-07-24T00:03:53;4.23;;;2.60;;
3843;SDS011;1937;51.444;6.484;2023-07-24T00:06:22;4.73;;;3.40;;
3843;SDS011;1937;51.444;6.484;2023-07-24T00:08:49;5.50;;;3.13;;
3843;SDS011;1937;51.444;6.484;2023-07-24T00:11:15;5.63;;;4.00;;
3843;SDS011;1937;51.444;6.484;2023-07-24T00:13:42;4.93;;;3.30;;
3843;SDS011;1937;51.444;6.484;2023-07-24T00:16:09;4.80;;;3.37;;
3843;SDS011;1937;51.444;6.484;2023-07-24T00:18:36;5.13;;;3.40;;
3843;SDS011;1937;51.444;6.484;2023-07-24T00:21:02;8.03;;;3.87;;
3843;SDS011;1937;51.444;6.484;2023-07-24T00:23:30;7.00;;;4.07;;
3843;SDS011;1937;51.444;6.484;2023-07-24T00:25:57;5.90;;;3.83;;
3843;SDS011;1937;51.444;6.484;2023-07-24T00:28:23;8.87;;;4.00;;
3843;SDS011;1937;51.444;6.484;2023-07-24T00:30:50;5.20;;;3.60;;
3843;SDS011;1937;51.444;6.484;2023-07-24T00:33:17;6.80;;;4.60;;
3843;SDS011;1937;51.444;6.484;2023-07-24T00:35:43;7.50;;;3.90;;
3843;SDS011;1937;51.444;6.484;2023-07-24T00:38:10;5.27;;;3.97;;
3843;SDS011;1937;51.444;6.484;2023-07-24T00:40:38;10.10;;;3.90;;
3843;SDS011;1937;51.444;6.484;2023-07-24T00:43:04;6.30;;;4.50;;
3843;SDS011;1937;51.444;6.484;2023-07-24T00:45:31;7.50;;;4.40;;
3843;SDS011;1937;51.444;6.484;2023-07-24T00:47:58;5.20;;;4.07;;
3843;SDS011;1937;51.444;6.484;2023-07-24T00:50:26;7.00;;;4.67;;
3843;SDS011;1937;51.444;6.484;2023-07-24T00:52:53;6.37;;;3.63;;
3843;SDS011;1937;51.444;6.484;2023-07-24T00:55:20;6.53;;;4.47;;
3843;SDS011;1937;51.444;6.484;2023-07-24T00:57:48;9.33;;;4.67;;
3843;SDS011;1937;51.444;6.484;2023-07-24T01:00:16;5.20;;;3.60;;
3843;SDS011;1937;51.444;6.484;2023-07-24T01:02:42;5.60;;;4.00;;
3843;SDS011;1937;51.444;6.484;2023-07-24T01:05:09;8.17;;;4.27;;
3843;SDS011;1937;51.444;6.484;2023-07-24T01:07:39;4.97;;;3.70;;
3843;SDS011;1937;51.444;6.484;2023-07-24T01:10:05;8.80;;;4.97;;
3843;SDS011;1937;51.444;6.484;2023-07-24T01:12:34;5.47;;;3.77;;
3843;SDS011;1937;51.444;6.484;2023-07-24T01:15:08;6.27;;;4.27;;
3843;SDS011;1937;51.444;6.484;2023-07-24T01:17:41;7.30;;;4.20;;
3843;SDS011;1937;51.444;6.484;2023-07-24T01:20:11;5.93;;;4.20;;
3843;SDS011;1937;51.444;6.484;2023-07-24T01:22:43;6.73;;;4.20;;
3843;SDS011;1937;51.444;6.484;2023-07-24T01:25:23;8.40;;;4.50;;
3843;SDS011;1937;51.444;6.484;2023-07-24T01:27:55;8.43;;;5.30;;
3843;SDS011;1937;51.444;6.484;2023-07-24T01:30:22;6.63;;;4.60;;
3843;SDS011;1937;51.444;6.484;2023-07-24T01:32:49;7.23;;;4.50;;
3843;SDS011;1937;51.444;6.484;2023-07-24T01:35:15;8.73;;;4.70;;
3843;SDS011;1937;51.444;6.484;2023-07-24T01:37:42;7.37;;;4.37;;
3843;SDS011;1937;51.444;6.484;2023-07-24T01:40:10;6.30;;;4.27;;
3843;SDS011;1937;51.444;6.484;2023-07-24T01:42:38;7.50;;;4.03;;
3843;SDS011;1937;51.444;6.484;2023-07-24T01:45:09;11.30;;;4.33;;
3843;SDS011;1937;51.444;6.484;2023-07-24T01:47:36;7.10;;;4.73;;
3843;SDS011;1937;51.444;6.484;2023-07-24T01:50:03;15.63;;;4.27;;
3843;SDS011;1937;51.444;6.484;2023-07-24T01:52:30;9.10;;;4.80;;
3843;SDS011;1937;51.444;6.484;2023-07-24T01:54:56;7.47;;;4.23;;
3843;SDS011;1937;51.444;6.484;2023-07-24T01:57:23;6.17;;;4.87;;
3843;SDS011;1937;51.444;6.484;2023-07-24T01:59:50;5.93;;;4.27;;
3843;SDS011;1937;51.444;6.484;2023-07-24T02:02:17;10.40;;;5.50;;
3843;SDS011;1937;51.444;6.484;2023-07-24T02:04:45;6.40;;;4.60;;
3843;SDS011;1937;51.444;6.484;2023-07-24T02:07:12;5.13;;;4.40;;
3843;SDS011;1937;51.444;6.484;2023-07-24T02:09:39;7.30;;;4.10;;
3843;SDS011;1937;51.444;6.484;2023-07-24T02:12:06;7.27;;;4.10;;
3843;SDS011;1937;51.444;6.484;2023-07-24T02:14:32;6.87;;;4.67;;
3843;SDS011;1937;51.444;6.484;2023-07-24T02:16:59;8.10;;;4.60;;
3843;SDS011;1937;51.444;6.484;2023-07-24T02:19:27;6.23;;;5.10;;
3843;SDS011;1937;51.444;6.484;2023-07-24T02:21:53;6.47;;;4.03;;
3843;SDS011;1937;51.444;6.484;2023-07-24T02:24:20;6.57;;;4.13;;
3843;SDS011;1937;51.444;6.484;2023-07-24T02:26:47;6.80;;;3.83;;
3843;SDS011;1937;51.444;6.484;2023-07-24T02:29:13;6.83;;;4.50;;
3843;SDS011;1937;51.444;6.484;2023-07-24T02:31:40;6.03;;;4.20;;
3843;SDS011;1937;51.444;6.484;2023-07-24T02:34:07;9.20;;;4.20;;
3843;SDS011;1937;51.444;6.484;2023-07-24T02:36:35;6.20;;;4.43;;
3843;SDS011;1937;51.444;6.484;2023-07-24T02:39:03;10.93;;;4.90;;
3843;SDS011;1937;51.444;6.484;2023-07-24T02:41:29;9.13;;;4.57;;
3843;SDS011;1937;51.444;6.484;2023-07-24T02:43:56;7.80;;;4.83;;
3843;SDS011;1937;51.444;6.484;2023-07-24T02:46:23;6.63;;;4.00;;
3843;SDS011;1937;51.444;6.484;2023-07-24T02:48:50;8.53;;;3.77;;
3843;SDS011;1937;51.444;6.484;2023-07-24T02:51:16;8.13;;;4.43;;
3843;SDS011;1937;51.444;6.484;2023-07-24T02:53:44;13.27;;;4.70;;
3843;SDS011;1937;51.444;6.484;2023-07-24T02:56:11;5.73;;;4.50;;
3843;SDS011;1937;51.444;6.484;2023-07-24T02:58:37;6.03;;;4.30;;
3843;SDS011;1937;51.444;6.484;2023-07-24T03:01:04;12.30;;;4.23;;
3843;SDS011;1937;51.444;6.484;2023-07-24T03:03:31;8.33;;;4.87;;
3843;SDS011;1937;51.444;6.484;2023-07-24T03:05:58;6.40;;;4.80;;
3843;SDS011;1937;51.444;6.484;2023-07-24T03:08:25;8.40;;;4.27;;
3843;SDS011;1937;51.444;6.484;2023-07-24T03:10:53;5.87;;;4.30;;
3843;SDS011;1937;51.444;6.484;2023-07-24T03:13:19;6.87;;;4.90;;
3843;SDS011;1937;51.444;6.484;2023-07-24T03:15:51;10.67;;;5.33;;
3843;SDS011;1937;51.444;6.484;2023-07-24T03:18:18;10.40;;;4.20;;
3843;SDS011;1937;51.444;6.484;2023-07-24T03:20:45;7.00;;;4.73;;
3843;SDS011;1937;51.444;6.484;2023-07-24T03:23:12;11.30;;;5.30;;
3843;SDS011;1937;51.444;6.484;2023-07-24T03:25:38;10.93;;;4.73;;
3843;SDS011;1937;51.444;6.484;2023-07-24T03:28:06;8.93;;;5.17;;
3843;SDS011;1937;51.444;6.484;2023-07-24T03:30:33;13.93;;;5.13;;
3843;SDS011;1937;51.444;6.484;2023-07-24T03:33:00;8.93;;;4.90;;
3843;SDS011;1937;51.444;6.484;2023-07-24T03:35:27;9.40;;;5.30;;
3843;SDS011;1937;51.444;6.484;2023-07-24T03:37:54;9.17;;;5.50;;
3843;SDS011;1937;51.444;6.484;2023-07-24T03:40:21;9.73;;;5.00;;
3843;SDS011;1937;51.444;6.484;2023-07-24T03:42:47;9.40;;;4.80;;
3843;SDS011;1937;51.444;6.484;2023-07-24T03:45:15;10.10;;;5.80;;
3843;SDS011;1937;51.444;6.484;2023-07-24T03:47:42;6.90;;;4.87;;
3843;SDS011;1937;51.444;6.484;2023-07-24T03:50:09;9.40;;;5.37;;
3843;SDS011;1937;51.444;6.484;2023-07-24T03:52:35;7.60;;;4.30;;
3843;SDS011;1937;51.444;6.484;2023-07-24T03:55:03;6.73;;;4.87;;
3843;SDS011;1937;51.444;6.484;2023-07-24T03:57:30;8.20;;;4.37;;
3843;SDS011;1937;51.444;6.484;2023-07-24T03:59:56;9.00;;;5.67;;
3843;SDS011;1937;51.444;6.484;2023-07-24T04:02:24;7.93;;;5.20;;
3843;SDS011;1937;51.444;6.484;2023-07-24T04:04:51;12.37;;;5.90;;
3843;SDS011;1937;51.444;6.484;2023-07-24T04:07:17;13.23;;;4.93;;
3843;SDS011;1937;51.444;6.484;2023-07-24T04:09:44;11.50;;;5.23;;
3843;SDS011;1937;51.444;6.484;2023-07-24T04:12:10;8.67;;;5.73;;
3843;SDS011;1937;51.444;6.484;2023-07-24T04:14:37;11.83;;;5.80;;
3843;SDS011;1937;51.444;6.484;2023-07-24T04:17:04;7.97;;;4.43;;
3843;SDS011;1937;51.444;6.484;2023-07-24T04:19:32;10.60;;;5.93;;
3843;SDS011;1937;51.444;6.484;2023-07-24T04:21:58;7.70;;;4.50;;
3843;SDS011;1937;51.444;6.484;2023-07-24T04:24:25;12.70;;;6.20;;
3843;SDS011;1937;51.444;6.484;2023-07-24T04:26:51;12.47;;;5.57;;
3843;SDS011;1937;51.444;6.484;2023-07-24T04:29:18;9.20;;;4.50;;
3843;SDS011;1937;51.444;6.484;2023-07-24T04:31:48;9.77;;;5.60;;
3843;SDS011;1937;51.444;6.484;2023-07-24T04:34:15;7.70;;;4.73;;
3843;SDS011;1937;51.444;6.484;2023-07-24T04:36:43;11.20;;;6.10;;
3843;SDS011;1937;51.444;6.484;2023-07-24T04:39:09;10.53;;;5.30;;
3843;SDS011;1937;51.444;6.484;2023-07-24T04:41:36;7.30;;;5.10;;
3843;SDS011;1937;51.444;6.484;2023-07-24T04:44:03;9.70;;;4.63;;
3843;SDS011;1937;51.444;6.484;2023-07-24T04:46:29;8.00;;;4.80;;
3843;SDS011;1937;51.444;6.484;2023-07-24T04:48:56;7.47;;;4.27;;
3843;SDS011;1937;51.444;6.484;2023-07-24T04:51:22;8.10;;;5.57;;
3843;SDS011;1937;51.444;6.484;2023-07-24T04:53:50;7.27;;;4.47;;
3843;SDS011;1937;51.444;6.484;2023-07-24T04:56:17;6.67;;;4.00;;
3843;SDS011;1937;51.444;6.484;2023-07-24T04:58:43;8.43;;;4.57;;
3843;SDS011;1937;51.444;6.484;2023-07-24T05:01:10;7.47;;;4.37;;
3843;SDS011;1937;51.444;6.484;2023-07-24T05:03:36;8.50;;;4.77;;
3843;SDS011;1937;51.444;6.484;2023-07-24T05:06:03;6.40;;;4.93;;
3843;SDS011;1937;51.444;6.484;2023-07-24T05:08:30;7.07;;;4.87;;
3843;SDS011;1937;51.444;6.484;2023-07-24T05:10:58;9.50;;;4.37;;
3843;SDS011;1937;51.444;6.484;2023-07-24T05:13:25;9.50;;;4.90;;
3843;SDS011;1937;51.444;6.484;2023-07-24T05:15:51;9.37;;;5.10;;
3843;SDS011;1937;51.444;6.484;2023-07-24T05:18:18;6.93;;;4.23;;
3843;SDS011;1937;51.444;6.484;2023-07-24T05:20:45;14.60;;;5.90;;
3843;SDS011;1937;51.444;6.484;2023-07-24T05:23:12;6.83;;;4.43;;
3843;SDS011;1937;51.444;6.484;2023-07-24T05:25:39;8.63;;;4.70;;
3843;SDS011;1937;51.444;6.484;2023-07-24T05:28:07;16.97;;;5.20;;
3843;SDS011;1937;51.444;6.484;2023-07-24T05:30:33;12.37;;;5.37;;
3843;SDS011;1937;51.444;6.484;2023-07-24T05:33:00;12.83;;;5.30;;
3843;SDS011;1937;51.444;6.484;2023-07-24T05:35:27;12.23;;;5.00;;
3843;SDS011;1937;51.444;6.484;2023-07-24T05:37:53;11.60;;;5.00;;
3843;SDS011;1937;51.444;6.484;2023-07-24T05:40:20;11.17;;;5.27;;
3843;SDS011;1937;51.444;6.484;2023-07-24T05:42:46;8.57;;;4.80;;
3843;SDS011;1937;51.444;6.484;2023-07-24T05:45:14;12.50;;;5.60;;
3843;SDS011;1937;51.444;6.484;2023-07-24T05:47:41;10.90;;;5.27;;
3843;SDS011;1937;51.444;6.484;2023-07-24T05:50:08;6.70;;;5.17;;
3843;SDS011;1937;51.444;6.484;2023-07-24T05:52:35;9.40;;;5.17;;
3843;SDS011;1937;51.444;6.484;2023-07-24T05:55:01;8.27;;;5.13;;
3843;SDS011;1937;51.444;6.484;2023-07-24T05:57:28;10.50;;;5.00;;
3843;SDS011;1937;51.444;6.484;2023-07-24T05:59:55;6.47;;;3.70;;
3843;SDS011;1937;51.444;6.484;2023-07-24T06:02:23;5.70;;;2.80;;
3843;SDS011;1937;51.444;6.484;2023-07-24T06:04:50;2.97;;;2.20;;
3843;SDS011;1937;51.444;6.484;2023-07-24T06:07:16;3.80;;;2.97;;
3843;SDS011;1937;51.444;6.484;2023-07-24T06:09:43;2.87;;;2.13;;
3843;SDS011;1937;51.444;6.484;2023-07-24T06:12:10;6.00;;;2.50;;
3843;SDS011;1937;51.444;6.484;2023-07-24T06:14:36;2.83;;;2.20;;
3843;SDS011;1937;51.444;6.484;2023-07-24T06:17:03;4.10;;;1.97;;
3843;SDS011;1937;51.444;6.484;2023-07-24T06:19:31;3.60;;;2.13;;
3843;SDS011;1937;51.444;6.484;2023-07-24T06:21:58;2.83;;;2.30;;
3843;SDS011;1937;51.444;6.484;2023-07-24T06:24:25;3.27;;;1.90;;
3843;SDS011;1937;51.444;6.484;2023-07-24T06:26:51;4.40;;;2.17;;
3843;SDS011;1937;51.444;6.484;2023-07-24T06:29:18;3.57;;;2.07;;
3843;SDS011;1937;51.444;6.484;2023-07-24T06:31:44;4.90;;;2.60;;
3843;SDS011;1937;51.444;6.484;2023-07-24T06:34:11;3.37;;;2.50;;
3843;SDS011;1937;51.444;6.484;2023-07-24T06:36:39;2.27;;;1.93;;
3843;SDS011;1937;51.444;6.484;2023-07-24T06:39:06;4.17;;;2.33;;
3843;SDS011;1937;51.444;6.484;2023-07-24T06:41:32;6.00;;;2.13;;
3843;SDS011;1937;51.444;6.484;2023-07-24T06:43:59;4.30;;;2.60;;
3843;SDS011;1937;51.444;6.484;2023-07-24T06:46:25;4.40;;;2.33;;
3843;SDS011;1937;51.444;6.484;2023-07-24T06:48:52;2.57;;;2.17;;
3843;SDS011;1937;51.444;6.484;2023-07-24T06:51:18;2.73;;;2.13;;
3843;SDS011;1937;51.444;6.484;2023-07-24T06:53:46;2.67;;;2.13;;
3843;SDS011;1937;51.444;6.484;2023-07-24T06:56:13;3.83;;;2.97;;
3843;SDS011;1937;51.444;6.484;2023-07-24T06:58:40;6.77;;;2.57;;
3843;SDS011;1937;51.444;6.484;2023-07-24T07:01:06;5.33;;;3.10;;
3843;SDS011;1937;51.444;6.484;2023-07-24T07:03:33;5.03;;;3.00;;
3843;SDS011;1937;51.444;6.484;2023-07-24T07:06:00;3.00;;;2.43;;
3843;SDS011;1937;51.444;6.484;2023-07-24T07:08:27;2.60;;;2.40;;
3843;SDS011;1937;51.444;6.484;2023-07-24T07:10:56;5.27;;;2.73;;
3843;SDS011;1937;51.444;6.484;2023-07-24T07:13:22;6.93;;;2.73;;
3843;SDS011;1937;51.444;6.484;2023-07-24T07:15:49;3.70;;;3.10;;
3843;SDS011;1937;51.444;6.484;2023-07-24T07:18:16;4.13;;;2.80;;
3843;SDS011;1937;51.444;6.484;2023-07-24T07:20:44;7.47;;;3.70;;
3843;SDS011;1937;51.444;6.484;2023-07-24T07:23:12;4.60;;;2.97;;
3843;SDS011;1937;51.444;6.484;2023-07-24T07:25:39;3.70;;;2.73;;
3843;SDS011;1937;51.444;6.484;2023-07-24T07:28:07;10.90;;;3.50;;
3843;SDS011;1937;51.444;6.484;2023-07-24T07:30:33;5.17;;;3.13;;
3843;SDS011;1937;51.444;6.484;2023-07-24T07:33:00;4.63;;;2.40;;
3843;SDS011;1937;51.444;6.484;2023-07-24T07:35:27;4.97;;;2.80;;
3843;SDS011;1937;51.444;6.484;2023-07-24T07:37:53;7.13;;;2.43;;
3843;SDS011;1937;51.444;6.484;2023-07-24T07:40:20;3.87;;;2.20;;
3843;SDS011;1937;51.444;6.484;2023-07-24T07:42:48;2.90;;;2.23;;
3843;SDS011;1937;51.444;6.484;2023-07-24T07:45:16;3.97;;;2.00;;
3843;SDS011;1937;51.444;6.484;2023-07-24T07:47:42;2.33;;;2.07;;
3843;SDS011;1937;51.444;6.484;2023-07-24T07:50:09;2.83;;;1.77;;
3843;SDS011;1937;51.444;6.484;2023-07-24T07:52:36;2.27;;;2.07;;
3843;SDS011;1937;51.444;6.484;2023-07-24T07:55:03;2.67;;;1.80;;
3843;SDS011;1937;51.444;6.484;2023-07-24T07:57:31;3.80;;;2.10;;
3843;SDS011;1937;51.444;6.484;2023-07-24T07:59:58;2.27;;;2.07;;
3843;SDS011;1937;51.444;6.484;2023-07-24T08:02:26;2.30;;;1.87;;
3843;SDS011;1937;51.444;6.484;2023-07-24T08:04:52;2.87;;;1.90;;
3843;SDS011;1937;51.444;6.484;2023-07-24T08:07:19;2.77;;;2.00;;
3843;SDS011;1937;51.444;6.484;2023-07-24T08:09:45;2.30;;;1.80;;
3843;SDS011;1937;51.444;6.484;2023-07-24T08:12:12;1.90;;;1.70;;
3843;SDS011;1937;51.444;6.484;2023-07-24T08:14:39;3.70;;;2.13;;
3843;SDS011;1937;51.444;6.484;2023-07-24T08:17:06;2.33;;;1.80;;
3843;SDS011;1937;51.444;6.484;2023-07-24T08:19:33;2.00;;;1.60;;
3843;SDS011;1937;51.444;6.484;2023-07-24T08:22:00;2.47;;;1.70;;
3843;SDS011;1937;51.444;6.484;2023-07-24T08:24:27;2.10;;;1.60;;
3843;SDS011;1937;51.444;6.484;2023-07-24T08:26:53;1.87;;;1.50;;
3843;SDS011;1937;51.444;6.484;2023-07-24T08:29:20;2.07;;;1.87;;
3843;SDS011;1937;51.444;6.484;2023-07-24T08:31:47;2.37;;;1.90;;
3843;SDS011;1937;51.444;6.484;2023-07-24T08:34:14;3.13;;;1.20;;
3843;SDS011;1937;51.444;6.484;2023-07-24T08:36:42;2.00;;;1.80;;
3843;SDS011;1937;51.444;6.484;2023-07-24T08:39:08;2.87;;;1.53;;
3843;SDS011;1937;51.444;6.484;2023-07-24T08:41:36;1.80;;;1.70;;
3843;SDS011;1937;51.444;6.484;2023-07-24T08:44:03;2.40;;;1.80;;
3843;SDS011;1937;51.444;6.484;2023-07-24T08:46:31;6.77;;;1.70;;
3843;SDS011;1937;51.444;6.484;2023-07-24T08:49:02;2.50;;;2.00;;
3843;SDS011;1937;51.444;6.484;2023-07-24T08:51:32;2.60;;;1.87;;
3843;SDS011;1937;51.444;6.484;2023-07-24T08:54:00;2.80;;;1.73;;
3843;SDS011;1937;51.444;6.484;2023-07-24T08:56:29;3.10;;;1.90;;
3843;SDS011;1937;51.444;6.484;2023-07-24T08:58:55;2.07;;;1.83;;
3843;SDS011;1937;51.444;6.484;2023-07-24T09:01:22;2.63;;;2.17;;
3843;SDS011;1937;51.444;6.484;2023-07-24T09:03:49;2.40;;;1.47;;
3843;SDS011;1937;51.444;6.484;2023-07-24T09:06:15;3.73;;;2.13;;
3843;SDS011;1937;51.444;6.484;2023-07-24T09:08:42;1.97;;;1.70;;
3843;SDS011;1937;51.444;6.484;2023-07-24T09:11:13;2.87;;;1.80;;
3843;SDS011;1937;51.444;6.484;2023-07-24T09:13:40;2.07;;;1.60;;
3843;SDS011;1937;51.444;6.484;2023-07-24T09:16:20;3.40;;;1.60;;
3843;SDS011;1937;51.444;6.484;2023-07-24T09:18:47;2.73;;;1.70;;
3843;SDS011;1937;51.444;6.484;2023-07-24T09:21:26;2.23;;;1.53;;
3843;SDS011;1937;51.444;6.484;2023-07-24T09:23:53;1.60;;;1.33;;
3843;SDS011;1937;51.444;6.484;2023-07-24T09:26:21;1.67;;;1.57;;
3843;SDS011;1937;51.444;6.484;2023-07-24T09:28:51;3.97;;;1.80;;
3843;SDS011;1937;51.444;6.484;2023-07-24T09:31:19;1.77;;;1.67;;
3843;SDS011;1937;51.444;6.484;2023-07-24T09:33:45;2.10;;;1.83;;
3843;SDS011;1937;51.444;6.484;2023-07-24T09:36:12;1.90;;;1.70;;
3843;SDS011;1937;51.444;6.484;2023-07-24T09:38:39;2.00;;;1.70;;
3843;SDS011;1937;51.444;6.484;2023-07-24T09:41:07;2.70;;;1.80;;
3843;SDS011;1937;51.444;6.484;2023-07-24T09:43:35;2.20;;;1.40;;
3843;SDS011;1937;51.444;6.484;2023-07-24T09:46:02;3.13;;;1.90;;
3843;SDS011;1937;51.444;6.484;2023-07-24T09:48:30;2.90;;;2.03;;
3843;SDS011;1937;51.444;6.484;2023-07-24T09:50:59;2.63;;;1.90;;
3843;SDS011;1937;51.444;6.484;2023-07-24T09:53:28;2.50;;;1.87;;
3843;SDS011;1937;51.444;6.484;2023-07-24T09:56:00;2.10;;;1.90;;
3843;SDS011;1937;51.444;6.484;2023-07-24T09:58:28;3.13;;;1.87;;
3843;SDS011;1937;51.444;6.484;2023-07-24T10:00:57;3.07;;;2.03;;
3843;SDS011;1937;51.444;6.484;2023-07-24T10:03:24;3.53;;;1.70;;
3843;SDS011;1937;51.444;6.484;2023-07-24T10:05:52;2.53;;;1.77;;
3843;SDS011;1937;51.444;6.484;2023-07-24T10:08:19;2.80;;;1.80;;
3843;SDS011;1937;51.444;6.484;2023-07-24T10:10:46;3.30;;;1.80;;
3843;SDS011;1937;51.444;6.484;2023-07-24T10:13:16;4.53;;;2.43;;
3843;SDS011;1937;51.444;6.484;2023-07-24T10:15:44;1.83;;;1.73;;
3843;SDS011;1937;51.444;6.484;2023-07-24T10:18:16;1.53;;;1.43;;
3843;SDS011;1937;51.444;6.484;2023-07-24T10:20:43;1.63;;;1.43;;
3843;SDS011;1937;51.444;6.484;2023-07-24T10:23:11;2.17;;;1.67;;
3843;SDS011;1937;51.444;6.484;2023-07-24T10:25:44;1.90;;;1.70;;
3843;SDS011;1937;51.444;6.484;2023-07-24T10:28:12;2.10;;;1.57;;
3843;SDS011;1937;51.444;6.484;2023-07-24T10:30:41;2.37;;;1.40;;
3843;SDS011;1937;51.444;6.484;2023-07-24T10:33:09;1.73;;;1.63;;
3843;SDS011;1937;51.444;6.484;2023-07-24T10:35:39;2.30;;;1.70;;
3843;SDS011;1937;51.444;6.484;2023-07-24T10:38:06;3.07;;;1.60;;
3843;SDS011;1937;51.444;6.484;2023-07-24T10:40:33;2.20;;;1.60;;
3843;SDS011;1937;51.444;6.484;2023-07-24T10:43:01;2.30;;;2.10;;
3843;SDS011;1937;51.444;6.484;2023-07-24T10:45:45;2.30;;;1.80;;
3843;SDS011;1937;51.444;6.484;2023-07-24T10:48:14;3.13;;;2.70;;
3843;SDS011;1937;51.444;6.484;2023-07-24T10:50:44;4.00;;;2.60;;
3843;SDS011;1937;51.444;6.484;2023-07-24T10:53:13;2.60;;;2.07;;
3843;SDS011;1937;51.444;6.484;2023-07-24T10:55:42;2.03;;;1.83;;
3843;SDS011;1937;51.444;6.484;2023-07-24T10:58:09;2.53;;;2.30;;
3843;SDS011;1937;51.444;6.484;2023-07-24T11:00:38;2.60;;;2.03;;
3843;SDS011;1937;51.444;6.484;2023-07-24T11:03:04;6.83;;;2.30;;
3843;SDS011;1937;51.444;6.484;2023-07-24T11:05:33;3.70;;;2.20;;
3843;SDS011;1937;51.444;6.484;2023-07-24T11:08:01;3.40;;;2.70;;
3843;SDS011;1937;51.444;6.484;2023-07-24T11:10:35;9.10;;;3.90;;
3843;SDS011;1937;51.444;6.484;2023-07-24T11:13:01;4.93;;;3.10;;
3843;SDS011;1937;51.444;6.484;2023-07-24T11:15:28;7.00;;;2.90;;
3843;SDS011;1937;51.444;6.484;2023-07-24T11:17:54;3.90;;;3.13;;
3843;SDS011;1937;51.444;6.484;2023-07-24T11:20:21;4.13;;;2.80;;
3843;SDS011;1937;51.444;6.484;2023-07-24T11:22:47;5.40;;;3.53;;
3843;SDS011;1937;51.444;6.484;2023-07-24T11:25:15;4.90;;;3.50;;
3843;SDS011;1937;51.444;6.484;2023-07-24T11:27:43;4.27;;;2.97;;
3843;SDS011;1937;51.444;6.484;2023-07-24T11:30:10;4.10;;;3.00;;
3843;SDS011;1937;51.444;6.484;2023-07-24T11:32:38;5.23;;;2.90;;
3843;SDS011;1937;51.444;6.484;2023-07-24T11:35:05;4.47;;;3.37;;
3843;SDS011;1937;51.444;6.484;2023-07-24T11:37:33;6.13;;;3.60;;
3843;SDS011;1937;51.444;6.484;2023-07-24T11:40:01;5.10;;;3.43;;
3843;SDS011;1937;51.444;6.484;2023-07-24T11:42:35;2.97;;;2.67;;
3843;SDS011;1937;51.444;6.484;2023-07-24T11:45:04;5.60;;;3.13;;
3843;SDS011;1937;51.444;6.484;2023-07-24T11:47:31;4.10;;;3.07;;
3843;SDS011;1937;51.444;6.484;2023-07-24T11:50:07;4.90;;;2.97;;
3843;SDS011;1937;51.444;6.484;2023-07-24T11:52:38;5.00;;;3.03;;
3843;SDS011;1937;51.444;6.484;2023-07-24T11:55:06;6.10;;;3.13;;
3843;SDS011;1937;51.444;6.484;2023-07-24T11:57:35;4.00;;;3.13;;
3843;SDS011;1937;51.444;6.484;2023-07-24T12:00:02;4.43;;;3.13;;
3843;SDS011;1937;51.444;6.484;2023-07-24T12:02:29;4.50;;;2.70;;
3843;SDS011;1937;51.444;6.484;2023-07-24T12:04:58;3.47;;;3.00;;
3843;SDS011;1937;51.444;6.484;2023-07-24T12:07:29;2.97;;;2.67;;
3843;SDS011;1937;51.444;6.484;2023-07-24T12:09:57;5.37;;;3.37;;
3843;SDS011;1937;51.444;6.484;2023-07-24T12:12:24;4.53;;;3.50;;
3843;SDS011;1937;51.444;6.484;2023-07-24T12:14:52;4.63;;;3.23;;
3843;SDS011;1937;51.444;6.484;2023-07-24T12:17:18;3.37;;;2.73;;
3843;SDS011;1937;51.444;6.484;2023-07-24T12:19:45;3.23;;;2.53;;
3843;SDS011;1937;51.444;6.484;2023-07-24T12:22:13;3.67;;;2.77;;
3843;SDS011;1937;51.444;6.484;2023-07-24T12:24:39;3.50;;;2.90;;
3843;SDS011;1937;51.444;6.484;2023-07-24T12:27:06;5.00;;;3.37;;
3843;SDS011;1937;51.444;6.484;2023-07-24T12:29:32;4.73;;;3.77;;
3843;SDS011;1937;51.444;6.484;2023-07-24T12:32:00;3.90;;;3.10;;
3843;SDS011;1937;51.444;6.484;2023-07-24T12:34:27;4.80;;;3.00;;
3843;SDS011;1937;51.444;6.484;2023-07-24T12:36:54;3.87;;;2.90;;
3843;SDS011;1937;51.444;6.484;2023-07-24T12:39:20;3.90;;;2.90;;
3843;SDS011;1937;51.444;6.484;2023-07-24T12:41:47;3.93;;;3.07;;
3843;SDS011;1937;51.444;6.484;2023-07-24T12:44:13;3.37;;;3.07;;
3843;SDS011;1937;51.444;6.484;2023-07-24T12:46:40;4.33;;;2.70;;
3843;SDS011;1937;51.444;6.484;2023-07-24T12:49:08;3.90;;;2.80;;
3843;SDS011;1937;51.444;6.484;2023-07-24T12:51:34;3.23;;;2.87;;
3843;SDS011;1937;51.444;6.484;2023-07-24T12:54:01;4.70;;;3.30;;
3843;SDS011;1937;51.444;6.484;2023-07-24T12:56:27;4.90;;;3.47;;
3843;SDS011;1937;51.444;6.484;2023-07-24T12:58:54;6.70;;;2.90;;
3843;SDS011;1937;51.444;6.484;2023-07-24T13:01:20;3.80;;;3.10;;
3843;SDS011;1937;51.444;6.484;2023-07-24T13:03:49;5.50;;;3.13;;
3843;SDS011;1937;51.444;6.484;2023-07-24T13:06:17;5.00;;;3.20;;
3843;SDS011;1937;51.444;6.484;2023-07-24T13:08:43;4.07;;;2.30;;
3843;SDS011;1937;51.444;6.484;2023-07-24T13:11:10;2.20;;;2.00;;
3843;SDS011;1937;51.444;6.484;2023-07-24T13:13:36;2.97;;;2.50;;
3843;SDS011;1937;51.444;6.484;2023-07-24T13:16:03;2.70;;;2.00;;
3843;SDS011;1937;51.444;6.484;2023-07-24T13:18:30;3.33;;;2.30;;
3843;SDS011;1937;51.444;6.484;2023-07-24T13:20:56;2.17;;;1.90;;
3843;SDS011;1937;51.444;6.484;2023-07-24T13:23:25;2.17;;;1.97;;
3843;SDS011;1937;51.444;6.484;2023-07-24T13:25:52;2.27;;;2.00;;
3843;SDS011;1937;51.444;6.484;2023-07-24T13:28:19;1.90;;;1.60;;
3843;SDS011;1937;51.444;6.484;2023-07-24T13:30:45;2.40;;;1.73;;
3843;SDS011;1937;51.444;6.484;2023-07-24T13:33:12;1.97;;;1.70;;
3843;SDS011;1937;51.444;6.484;2023-07-24T13:35:38;2.20;;;2.00;;
3843;SDS011;1937;51.444;6.484;2023-07-24T13:38:05;5.40;;;2.43;;
3843;SDS011;1937;51.444;6.484;2023-07-24T13:40:34;3.20;;;2.10;;
3843;SDS011;1937;51.444;6.484;2023-07-24T13:43:01;4.73;;;2.00;;
3843;SDS011;1937;51.444;6.484;2023-07-24T13:45:28;4.37;;;2.30;;
3843;SDS011;1937;51.444;6.484;2023-07-24T13:47:56;3.00;;;2.43;;
3843;SDS011;1937;51.444;6.484;2023-07-24T13:50:23;2.87;;;2.30;;
3843;SDS011;1937;51.444;6.484;2023-07-24T13:52:49;2.70;;;2.50;;
3843;SDS011;1937;51.444;6.484;2023-07-24T13:55:16;3.23;;;2.53;;
3843;SDS011;1937;51.444;6.484;2023-07-24T13:57:44;3.20;;;2.20;;
3843;SDS011;1937;51.444;6.484;2023-07-24T14:00:11;4.30;;;2.67;;
3843;SDS011;1937;51.444;6.484;2023-07-24T14:02:38;3.10;;;2.43;;
3843;SDS011;1937;51.444;6.484;2023-07-24T14:05:05;2.33;;;2.00;;
3843;SDS011;1937;51.444;6.484;2023-07-24T14:07:33;7.77;;;2.37;;
3843;SDS011;1937;51.444;6.484;2023-07-24T14:09:59;3.93;;;1.97;;
3843;SDS011;1937;51.444;6.484;2023-07-24T14:12:26;2.90;;;2.10;;
3843;SDS011;1937;51.444;6.484;2023-07-24T14:14:54;2.60;;;2.07;;
3843;SDS011;1937;51.444;6.484;2023-07-24T14:17:20;3.03;;;2.50;;
3843;SDS011;1937;51.444;6.484;2023-07-24T14:19:47;4.07;;;2.70;;
3843;SDS011;1937;51.444;6.484;2023-07-24T14:22:13;2.87;;;2.57;;
3843;SDS011;1937;51.444;6.484;2023-07-24T14:24:40;3.80;;;2.80;;
3843;SDS011;1937;51.444;6.484;2023-07-24T14:27:07;3.30;;;2.67;;
3843;SDS011;1937;51.444;6.484;2023-07-24T14:29:33;3.00;;;2.70;;
3843;SDS011;1937;51.444;6.484;2023-07-24T14:32:01;5.17;;;2.97;;
3843;SDS011;1937;51.444;6.484;2023-07-24T14:34:28;3.50;;;2.90;;
3843;SDS011;1937;51.444;6.484;2023-07-24T14:36:54;2.50;;;2.30;;
3843;SDS011;1937;51.444;6.484;2023-07-24T14:39:21;5.37;;;3.30;;
3843;SDS011;1937;51.444;6.484;2023-07-24T14:41:48;3.23;;;2.93;;
3843;SDS011;1937;51.444;6.484;2023-07-24T14:44:14;2.77;;;2.53;;
3843;SDS011;1937;51.444;6.484;2023-07-24T14:46:41;4.20;;;2.87;;
3843;SDS011;1937;51.444;6.484;2023-07-24T14:49:09;4.83;;;3.60;;
3843;SDS011;1937;51.444;6.484;2023-07-24T14:51:35;4.07;;;3.03;;
3843;SDS011;1937;51.444;6.484;2023-07-24T14:54:02;4.30;;;3.57;;
3843;SDS011;1937;51.444;6.484;2023-07-24T14:56:29;4.23;;;3.00;;
3843;SDS011;1937;51.444;6.484;2023-07-24T14:58:56;5.87;;;3.23;;
3843;SDS011;1937;51.444;6.484;2023-07-24T15:01:22;2.90;;;2.70;;
3843;SDS011;1937;51.444;6.484;2023-07-24T15:03:51;3.43;;;3.13;;
3843;SDS011;1937;51.444;6.484;2023-07-24T15:06:19;5.30;;;3.50;;
3843;SDS011;1937;51.444;6.484;2023-07-24T15:08:45;4.10;;;3.50;;
3843;SDS011;1937;51.444;6.484;2023-07-24T15:11:12;5.00;;;3.23;;
3843;SDS011;1937;51.444;6.484;2023-07-24T15:13:38;6.50;;;3.70;;
3843;SDS011;1937;51.444;6.484;2023-07-24T15:16:05;5.00;;;3.93;;